Terminal Aerodrome Forecast
Issued by NWS

Home | Current Version | Previous Version | Graphics & Text | Print | Product List | Glossary On
Versions: 1 2 3 4 5 6 7 8 9 10 11 12 13 14 15 16 17 18 19 20 21 22 23 24 25 26 27 28 29 30 31 32 33
000
FTUS43 KLOT 312200 AAB
TAFMDW
TAF AMD
KMDW 312203Z 3122/0118 21008KT P6SM SCT040
     FM010200 17004KT P6SM SCT080
     FM011300 19012KT P6SM VCSH SCT040 BKN080
     FM011600 20014G22KT P6SM SCT040=

USA.gov is the U.S. government's official web portal to all federal, state and local government web resources and services.